メインページ
METAR-TAF:

METAR-TAF

空港 :

アムステルダム, オランダ

アムステルダム・スキポール空港

緯度: 52-18N, 経度: 004-46E, 海抜: -4m

現時点の気象観測

当レポートは18分前の09:25(UTC)に作成
北東の風 10kt
気温 11°C
湿度 50%
気圧 1032 hPa
視程10km以上
1,500メートル以下は雲なし、積乱雲なし

METAR: EHAM 250925Z 05010KT CAVOK 11/01 Q1032 NOSIG

時間: 10:43 (09:43 UTC)

予報

当レポートは4時間39分前の05:04(UTC)に作成
予報は25日の 06時(UTC)から 26日の 12時(UTC)まで有効
北東の風 8kt
視程10km以上
1,500メートル以下は雲なし、積乱雲なし
25日の 09時(UTC)から 25日の 12時(UTC)まで徐々に
北東の風 13kt
25日の 21時(UTC)から 25日の 24時(UTC)まで徐々に
北東の風 8kt
確率 40%
26日の 00時(UTC)から 26日の 08時(UTC)まで
視程: 7000m
確率 30% :
26日の 03時(UTC)から 26日の 07時(UTC)まで一時的に
視程: 2500m
高度400ftの千切れ雲あり

TAF: EHAM 250504Z 2506/2612 05008KT CAVOK BECMG 2509/2512 04013KT BECMG 2521/2524 05008KT PROB40 2600/2608 7000 PROB30 TEMPO 2603/2607 2500 BR BKN004

4,000以上の空港の気象観測と天気予報(METAR報とTAF報)

利用可能な観測所は地図上に黄色い丸と赤い丸で示す。

丸の上にカーソルを重ねると観測所名を参照できる。

次にクリックすると気象観測と天気予報を参照できる。

マップの切り替え:黒色「×」印の緑ボタンをクリックして拡大、「-」印の緑ボタンをクリックして縮小、緑色の三角印をクリックして隣りの地図に切り替え


METAR-TAF: